sensor_id;sensor_type;location;lat;lon;timestamp;P1;durP1;ratioP1;P2;durP2;ratioP2
2896;SDS011;1458;49.728;9.228;2024-03-23T00:53:39;0.40;;;0.40;;
2896;SDS011;1458;49.728;9.228;2024-03-23T00:56:06;0.43;;;0.43;;
2896;SDS011;1458;49.728;9.228;2024-03-23T00:58:33;0.40;;;0.40;;
2896;SDS011;1458;49.728;9.228;2024-03-23T01:01:00;0.50;;;0.50;;
2896;SDS011;1458;49.728;9.228;2024-03-23T01:03:28;0.40;;;0.40;;
2896;SDS011;1458;49.728;9.228;2024-03-23T01:05:58;0.40;;;0.40;;
2896;SDS011;1458;49.728;9.228;2024-03-23T01:08:25;0.40;;;0.40;;
2896;SDS011;1458;49.728;9.228;2024-03-23T01:10:57;0.40;;;0.40;;
2896;SDS011;1458;49.728;9.228;2024-03-23T01:13:25;0.43;;;0.43;;
2896;SDS011;1458;49.728;9.228;2024-03-23T01:15:53;0.40;;;0.40;;
2896;SDS011;1458;49.728;9.228;2024-03-23T01:18:22;0.40;;;0.40;;
2896;SDS011;1458;49.728;9.228;2024-03-23T01:20:51;0.40;;;0.40;;
2896;SDS011;1458;49.728;9.228;2024-03-23T01:23:18;0.50;;;0.50;;
2896;SDS011;1458;49.728;9.228;2024-03-23T01:25:51;0.40;;;0.40;;
2896;SDS011;1458;49.728;9.228;2024-03-23T01:28:19;0.40;;;0.40;;
2896;SDS011;1458;49.728;9.228;2024-03-23T01:30:48;0.40;;;0.40;;
2896;SDS011;1458;49.728;9.228;2024-03-23T01:33:15;0.40;;;0.40;;
2896;SDS011;1458;49.728;9.228;2024-03-23T01:35:42;0.40;;;0.40;;
2896;SDS011;1458;49.728;9.228;2024-03-23T01:38:09;0.40;;;0.40;;
2896;SDS011;1458;49.728;9.228;2024-03-23T01:40:36;0.40;;;0.40;;
2896;SDS011;1458;49.728;9.228;2024-03-23T01:43:03;0.50;;;0.50;;
2896;SDS011;1458;49.728;9.228;2024-03-23T01:45:34;0.40;;;0.40;;
2896;SDS011;1458;49.728;9.228;2024-03-23T01:48:01;0.40;;;0.40;;
2896;SDS011;1458;49.728;9.228;2024-03-23T01:50:29;0.60;;;0.60;;
2896;SDS011;1458;49.728;9.228;2024-03-23T01:52:59;0.40;;;0.40;;
2896;SDS011;1458;49.728;9.228;2024-03-23T01:55:30;0.30;;;0.30;;
2896;SDS011;1458;49.728;9.228;2024-03-23T01:57:57;0.40;;;0.40;;
2896;SDS011;1458;49.728;9.228;2024-03-23T02:00:25;0.40;;;0.40;;
2896;SDS011;1458;49.728;9.228;2024-03-23T02:02:54;0.40;;;0.40;;
2896;SDS011;1458;49.728;9.228;2024-03-23T02:05:22;0.30;;;0.30;;
2896;SDS011;1458;49.728;9.228;2024-03-23T02:07:48;0.40;;;0.40;;
2896;SDS011;1458;49.728;9.228;2024-03-23T02:10:17;0.40;;;0.40;;
2896;SDS011;1458;49.728;9.228;2024-03-23T02:12:44;0.40;;;0.40;;
2896;SDS011;1458;49.728;9.228;2024-03-23T02:15:12;0.40;;;0.40;;
2896;SDS011;1458;49.728;9.228;2024-03-23T02:17:38;0.40;;;0.40;;
2896;SDS011;1458;49.728;9.228;2024-03-23T02:20:07;0.40;;;0.40;;
2896;SDS011;1458;49.728;9.228;2024-03-23T02:22:37;0.40;;;0.40;;
2896;SDS011;1458;49.728;9.228;2024-03-23T02:25:06;0.40;;;0.40;;
2896;SDS011;1458;49.728;9.228;2024-03-23T02:27:33;0.40;;;0.40;;
2896;SDS011;1458;49.728;9.228;2024-03-23T02:30:01;0.40;;;0.40;;
2896;SDS011;1458;49.728;9.228;2024-03-23T02:32:28;0.40;;;0.40;;
2896;SDS011;1458;49.728;9.228;2024-03-23T02:34:55;0.40;;;0.40;;
2896;SDS011;1458;49.728;9.228;2024-03-23T02:37:22;0.40;;;0.40;;
2896;SDS011;1458;49.728;9.228;2024-03-23T02:39:49;0.30;;;0.30;;
2896;SDS011;1458;49.728;9.228;2024-03-23T02:42:17;0.40;;;0.40;;
2896;SDS011;1458;49.728;9.228;2024-03-23T02:44:44;0.40;;;0.40;;
2896;SDS011;1458;49.728;9.228;2024-03-23T02:47:10;0.40;;;0.40;;
2896;SDS011;1458;49.728;9.228;2024-03-23T02:49:38;0.40;;;0.40;;
2896;SDS011;1458;49.728;9.228;2024-03-23T02:52:04;0.40;;;0.40;;
2896;SDS011;1458;49.728;9.228;2024-03-23T02:54:32;0.40;;;0.40;;
2896;SDS011;1458;49.728;9.228;2024-03-23T02:56:58;0.40;;;0.40;;
2896;SDS011;1458;49.728;9.228;2024-03-23T02:59:27;0.40;;;0.40;;
2896;SDS011;1458;49.728;9.228;2024-03-23T03:01:53;0.30;;;0.30;;
2896;SDS011;1458;49.728;9.228;2024-03-23T03:04:21;0.40;;;0.40;;
2896;SDS011;1458;49.728;9.228;2024-03-23T03:06:47;0.40;;;0.40;;
2896;SDS011;1458;49.728;9.228;2024-03-23T03:09:15;0.40;;;0.40;;
2896;SDS011;1458;49.728;9.228;2024-03-23T03:11:42;0.40;;;0.40;;
2896;SDS011;1458;49.728;9.228;2024-03-23T03:14:09;0.33;;;0.33;;
2896;SDS011;1458;49.728;9.228;2024-03-23T03:16:37;0.33;;;0.33;;
2896;SDS011;1458;49.728;9.228;2024-03-23T03:19:04;0.30;;;0.30;;
2896;SDS011;1458;49.728;9.228;2024-03-23T03:21:31;0.30;;;0.30;;
2896;SDS011;1458;49.728;9.228;2024-03-23T03:23:58;0.40;;;0.40;;
2896;SDS011;1458;49.728;9.228;2024-03-23T03:26:25;0.30;;;0.30;;
2896;SDS011;1458;49.728;9.228;2024-03-23T03:28:52;0.40;;;0.40;;
2896;SDS011;1458;49.728;9.228;2024-03-23T03:31:19;0.30;;;0.30;;
2896;SDS011;1458;49.728;9.228;2024-03-23T03:33:49;0.30;;;0.30;;
2896;SDS011;1458;49.728;9.228;2024-03-23T03:36:16;0.30;;;0.30;;
2896;SDS011;1458;49.728;9.228;2024-03-23T03:38:43;0.30;;;0.30;;
2896;SDS011;1458;49.728;9.228;2024-03-23T03:41:09;0.30;;;0.30;;
2896;SDS011;1458;49.728;9.228;2024-03-23T03:43:37;0.30;;;0.30;;
2896;SDS011;1458;49.728;9.228;2024-03-23T03:46:03;0.30;;;0.30;;
2896;SDS011;1458;49.728;9.228;2024-03-23T03:48:33;0.30;;;0.30;;
2896;SDS011;1458;49.728;9.228;2024-03-23T03:51:01;0.30;;;0.30;;
2896;SDS011;1458;49.728;9.228;2024-03-23T03:53:28;0.30;;;0.30;;
2896;SDS011;1458;49.728;9.228;2024-03-23T03:55:55;0.30;;;0.30;;
2896;SDS011;1458;49.728;9.228;2024-03-23T03:58:23;0.30;;;0.30;;
2896;SDS011;1458;49.728;9.228;2024-03-23T04:00:49;0.43;;;0.43;;
2896;SDS011;1458;49.728;9.228;2024-03-23T04:03:16;0.30;;;0.30;;
2896;SDS011;1458;49.728;9.228;2024-03-23T04:05:43;0.30;;;0.30;;
2896;SDS011;1458;49.728;9.228;2024-03-23T04:08:18;0.40;;;0.40;;
2896;SDS011;1458;49.728;9.228;2024-03-23T04:10:45;0.30;;;0.30;;
2896;SDS011;1458;49.728;9.228;2024-03-23T04:13:12;0.30;;;0.30;;
2896;SDS011;1458;49.728;9.228;2024-03-23T04:15:39;0.30;;;0.30;;
2896;SDS011;1458;49.728;9.228;2024-03-23T04:18:07;0.30;;;0.30;;
2896;SDS011;1458;49.728;9.228;2024-03-23T04:20:33;0.33;;;0.33;;
2896;SDS011;1458;49.728;9.228;2024-03-23T04:23:01;0.30;;;0.30;;
2896;SDS011;1458;49.728;9.228;2024-03-23T04:25:29;0.30;;;0.30;;
2896;SDS011;1458;49.728;9.228;2024-03-23T04:27:57;0.30;;;0.30;;
2896;SDS011;1458;49.728;9.228;2024-03-23T04:30:24;0.30;;;0.30;;
2896;SDS011;1458;49.728;9.228;2024-03-23T04:32:53;0.30;;;0.30;;
2896;SDS011;1458;49.728;9.228;2024-03-23T04:35:19;0.37;;;0.37;;
2896;SDS011;1458;49.728;9.228;2024-03-23T04:37:50;0.30;;;0.30;;
2896;SDS011;1458;49.728;9.228;2024-03-23T04:40:18;0.30;;;0.30;;
2896;SDS011;1458;49.728;9.228;2024-03-23T04:42:47;0.30;;;0.30;;
2896;SDS011;1458;49.728;9.228;2024-03-23T04:45:14;0.40;;;0.40;;
2896;SDS011;1458;49.728;9.228;2024-03-23T04:47:42;0.30;;;0.30;;
2896;SDS011;1458;49.728;9.228;2024-03-23T04:50:09;0.33;;;0.33;;
2896;SDS011;1458;49.728;9.228;2024-03-23T04:52:37;0.30;;;0.30;;
2896;SDS011;1458;49.728;9.228;2024-03-23T04:55:04;0.40;;;0.40;;
2896;SDS011;1458;49.728;9.228;2024-03-23T04:57:32;0.40;;;0.40;;
2896;SDS011;1458;49.728;9.228;2024-03-23T05:00:00;0.50;;;0.50;;
2896;SDS011;1458;49.728;9.228;2024-03-23T05:02:28;0.53;;;0.53;;
2896;SDS011;1458;49.728;9.228;2024-03-23T05:04:57;0.40;;;0.40;;
2896;SDS011;1458;49.728;9.228;2024-03-23T05:07:24;0.40;;;0.40;;
2896;SDS011;1458;49.728;9.228;2024-03-23T05:09:51;0.47;;;0.47;;
2896;SDS011;1458;49.728;9.228;2024-03-23T05:12:17;0.50;;;0.50;;
2896;SDS011;1458;49.728;9.228;2024-03-23T05:14:45;0.50;;;0.50;;
2896;SDS011;1458;49.728;9.228;2024-03-23T05:17:12;0.50;;;0.50;;
2896;SDS011;1458;49.728;9.228;2024-03-23T05:19:40;0.50;;;0.50;;
2896;SDS011;1458;49.728;9.228;2024-03-23T05:22:06;0.50;;;0.50;;
2896;SDS011;1458;49.728;9.228;2024-03-23T05:24:34;0.40;;;0.40;;
2896;SDS011;1458;49.728;9.228;2024-03-23T05:27:00;0.40;;;0.40;;
2896;SDS011;1458;49.728;9.228;2024-03-23T05:29:27;0.40;;;0.40;;
2896;SDS011;1458;49.728;9.228;2024-03-23T05:31:54;0.40;;;0.40;;
2896;SDS011;1458;49.728;9.228;2024-03-23T05:34:24;0.50;;;0.50;;
2896;SDS011;1458;49.728;9.228;2024-03-23T05:36:50;0.40;;;0.40;;
2896;SDS011;1458;49.728;9.228;2024-03-23T05:39:18;0.30;;;0.30;;
2896;SDS011;1458;49.728;9.228;2024-03-23T05:41:47;0.40;;;0.40;;
2896;SDS011;1458;49.728;9.228;2024-03-23T05:44:14;0.40;;;0.40;;
2896;SDS011;1458;49.728;9.228;2024-03-23T05:46:41;0.30;;;0.30;;
2896;SDS011;1458;49.728;9.228;2024-03-23T05:49:13;0.40;;;0.40;;
2896;SDS011;1458;49.728;9.228;2024-03-23T05:51:42;0.40;;;0.40;;
2896;SDS011;1458;49.728;9.228;2024-03-23T05:54:09;0.30;;;0.30;;
2896;SDS011;1458;49.728;9.228;2024-03-23T05:56:36;0.43;;;0.43;;
2896;SDS011;1458;49.728;9.228;2024-03-23T05:59:03;0.40;;;0.40;;
2896;SDS011;1458;49.728;9.228;2024-03-23T06:01:29;0.40;;;0.40;;
2896;SDS011;1458;49.728;9.228;2024-03-23T06:03:58;0.50;;;0.50;;
2896;SDS011;1458;49.728;9.228;2024-03-23T06:06:26;0.40;;;0.40;;
2896;SDS011;1458;49.728;9.228;2024-03-23T06:08:56;0.50;;;0.50;;
2896;SDS011;1458;49.728;9.228;2024-03-23T06:11:23;0.40;;;0.40;;
2896;SDS011;1458;49.728;9.228;2024-03-23T06:13:51;0.50;;;0.50;;
2896;SDS011;1458;49.728;9.228;2024-03-23T06:16:18;0.40;;;0.40;;
2896;SDS011;1458;49.728;9.228;2024-03-23T06:18:48;0.40;;;0.40;;
2896;SDS011;1458;49.728;9.228;2024-03-23T06:21:15;0.40;;;0.40;;
2896;SDS011;1458;49.728;9.228;2024-03-23T06:23:42;0.40;;;0.40;;
2896;SDS011;1458;49.728;9.228;2024-03-23T06:26:14;0.50;;;0.50;;
2896;SDS011;1458;49.728;9.228;2024-03-23T06:28:42;0.40;;;0.40;;
2896;SDS011;1458;49.728;9.228;2024-03-23T06:31:08;0.40;;;0.40;;
2896;SDS011;1458;49.728;9.228;2024-03-23T06:33:36;0.40;;;0.40;;
2896;SDS011;1458;49.728;9.228;2024-03-23T06:36:03;0.50;;;0.50;;
2896;SDS011;1458;49.728;9.228;2024-03-23T06:38:31;0.60;;;0.60;;
2896;SDS011;1458;49.728;9.228;2024-03-23T06:40:58;0.40;;;0.40;;
2896;SDS011;1458;49.728;9.228;2024-03-23T06:43:30;0.43;;;0.43;;
2896;SDS011;1458;49.728;9.228;2024-03-23T06:45:56;0.50;;;0.50;;
2896;SDS011;1458;49.728;9.228;2024-03-23T06:48:24;0.50;;;0.50;;
2896;SDS011;1458;49.728;9.228;2024-03-23T06:50:54;0.40;;;0.40;;
2896;SDS011;1458;49.728;9.228;2024-03-23T06:53:22;0.50;;;0.50;;
2896;SDS011;1458;49.728;9.228;2024-03-23T06:55:50;0.60;;;0.60;;
2896;SDS011;1458;49.728;9.228;2024-03-23T06:58:18;0.50;;;0.50;;
2896;SDS011;1458;49.728;9.228;2024-03-23T07:00:47;0.40;;;0.40;;
2896;SDS011;1458;49.728;9.228;2024-03-23T07:03:14;0.47;;;0.47;;
2896;SDS011;1458;49.728;9.228;2024-03-23T07:05:41;0.40;;;0.40;;
2896;SDS011;1458;49.728;9.228;2024-03-23T07:08:09;0.50;;;0.50;;
2896;SDS011;1458;49.728;9.228;2024-03-23T07:10:37;0.50;;;0.50;;
2896;SDS011;1458;49.728;9.228;2024-03-23T07:13:06;0.50;;;0.50;;
2896;SDS011;1458;49.728;9.228;2024-03-23T07:15:32;0.40;;;0.40;;
2896;SDS011;1458;49.728;9.228;2024-03-23T07:18:01;0.43;;;0.43;;
2896;SDS011;1458;49.728;9.228;2024-03-23T07:20:28;0.40;;;0.40;;
2896;SDS011;1458;49.728;9.228;2024-03-23T07:22:56;0.40;;;0.40;;
2896;SDS011;1458;49.728;9.228;2024-03-23T07:25:23;0.47;;;0.47;;
2896;SDS011;1458;49.728;9.228;2024-03-23T07:27:52;0.53;;;0.53;;
2896;SDS011;1458;49.728;9.228;2024-03-23T07:30:19;0.40;;;0.40;;
2896;SDS011;1458;49.728;9.228;2024-03-23T07:32:46;0.40;;;0.40;;
2896;SDS011;1458;49.728;9.228;2024-03-23T07:35:15;0.40;;;0.40;;
2896;SDS011;1458;49.728;9.228;2024-03-23T07:37:42;0.40;;;0.40;;
2896;SDS011;1458;49.728;9.228;2024-03-23T07:40:09;0.40;;;0.40;;
2896;SDS011;1458;49.728;9.228;2024-03-23T07:42:37;0.40;;;0.40;;
2896;SDS011;1458;49.728;9.228;2024-03-23T07:45:04;0.50;;;0.50;;
2896;SDS011;1458;49.728;9.228;2024-03-23T07:47:32;0.50;;;0.50;;
2896;SDS011;1458;49.728;9.228;2024-03-23T07:49:59;0.50;;;0.50;;
2896;SDS011;1458;49.728;9.228;2024-03-23T07:52:29;0.50;;;0.50;;
2896;SDS011;1458;49.728;9.228;2024-03-23T07:54:55;0.50;;;0.50;;
2896;SDS011;1458;49.728;9.228;2024-03-23T07:57:23;0.60;;;0.60;;
2896;SDS011;1458;49.728;9.228;2024-03-23T07:59:49;0.60;;;0.60;;
2896;SDS011;1458;49.728;9.228;2024-03-23T08:02:17;0.60;;;0.60;;
2896;SDS011;1458;49.728;9.228;2024-03-23T08:04:43;0.60;;;0.60;;
2896;SDS011;1458;49.728;9.228;2024-03-23T08:07:11;0.50;;;0.50;;
2896;SDS011;1458;49.728;9.228;2024-03-23T08:09:39;0.60;;;0.60;;
2896;SDS011;1458;49.728;9.228;2024-03-23T08:12:06;0.70;;;0.70;;
2896;SDS011;1458;49.728;9.228;2024-03-23T08:14:34;0.70;;;0.70;;
2896;SDS011;1458;49.728;9.228;2024-03-23T08:17:01;0.70;;;0.70;;
2896;SDS011;1458;49.728;9.228;2024-03-23T08:19:28;0.80;;;0.80;;
2896;SDS011;1458;49.728;9.228;2024-03-23T08:21:55;0.80;;;0.80;;
2896;SDS011;1458;49.728;9.228;2024-03-23T08:24:22;0.90;;;0.90;;
2896;SDS011;1458;49.728;9.228;2024-03-23T08:26:50;1.00;;;1.00;;
2896;SDS011;1458;49.728;9.228;2024-03-23T08:29:17;0.90;;;0.90;;
2896;SDS011;1458;49.728;9.228;2024-03-23T08:31:44;1.00;;;1.00;;
2896;SDS011;1458;49.728;9.228;2024-03-23T08:34:11;1.10;;;1.10;;
2896;SDS011;1458;49.728;9.228;2024-03-23T08:36:38;1.10;;;1.10;;
2896;SDS011;1458;49.728;9.228;2024-03-23T08:39:04;1.00;;;1.00;;
2896;SDS011;1458;49.728;9.228;2024-03-23T08:41:32;1.10;;;1.10;;
2896;SDS011;1458;49.728;9.228;2024-03-23T08:44:00;1.20;;;1.20;;
2896;SDS011;1458;49.728;9.228;2024-03-23T08:46:27;1.10;;;1.10;;
2896;SDS011;1458;49.728;9.228;2024-03-23T08:48:53;1.20;;;1.20;;
2896;SDS011;1458;49.728;9.228;2024-03-23T08:51:21;1.20;;;1.20;;
2896;SDS011;1458;49.728;9.228;2024-03-23T08:53:47;1.20;;;1.20;;
2896;SDS011;1458;49.728;9.228;2024-03-23T08:56:15;1.20;;;1.20;;
2896;SDS011;1458;49.728;9.228;2024-03-23T08:58:41;1.60;;;1.60;;
2896;SDS011;1458;49.728;9.228;2024-03-23T09:01:10;1.70;;;1.70;;
2896;SDS011;1458;49.728;9.228;2024-03-23T09:03:38;1.80;;;1.80;;
2896;SDS011;1458;49.728;9.228;2024-03-23T09:06:06;1.83;;;1.83;;
2896;SDS011;1458;49.728;9.228;2024-03-23T09:08:33;2.10;;;2.10;;
2896;SDS011;1458;49.728;9.228;2024-03-23T09:11:03;2.30;;;2.30;;
2896;SDS011;1458;49.728;9.228;2024-03-23T09:13:31;2.20;;;2.20;;
2896;SDS011;1458;49.728;9.228;2024-03-23T09:15:59;2.10;;;2.10;;
2896;SDS011;1458;49.728;9.228;2024-03-23T09:18:27;2.60;;;2.60;;
2896;SDS011;1458;49.728;9.228;2024-03-23T09:20:57;2.50;;;2.50;;
2896;SDS011;1458;49.728;9.228;2024-03-23T09:23:23;2.50;;;2.50;;
2896;SDS011;1458;49.728;9.228;2024-03-23T09:25:51;2.63;;;2.63;;
2896;SDS011;1458;49.728;9.228;2024-03-23T09:28:17;2.10;;;2.10;;
2896;SDS011;1458;49.728;9.228;2024-03-23T09:30:45;1.83;;;1.83;;
2896;SDS011;1458;49.728;9.228;2024-03-23T09:33:11;1.90;;;1.90;;
2896;SDS011;1458;49.728;9.228;2024-03-23T09:35:41;2.10;;;2.10;;
2896;SDS011;1458;49.728;9.228;2024-03-23T09:38:09;2.20;;;2.20;;
2896;SDS011;1458;49.728;9.228;2024-03-23T09:40:39;3.00;;;3.00;;
2896;SDS011;1458;49.728;9.228;2024-03-23T09:43:07;3.10;;;3.10;;
2896;SDS011;1458;49.728;9.228;2024-03-23T09:45:35;3.20;;;3.20;;
2896;SDS011;1458;49.728;9.228;2024-03-23T09:48:05;3.30;;;3.30;;
2896;SDS011;1458;49.728;9.228;2024-03-23T09:50:35;3.40;;;3.40;;
2896;SDS011;1458;49.728;9.228;2024-03-23T09:53:05;3.30;;;3.30;;
2896;SDS011;1458;49.728;9.228;2024-03-23T09:55:34;3.33;;;3.33;;
2896;SDS011;1458;49.728;9.228;2024-03-23T09:58:01;4.30;;;4.30;;
2896;SDS011;1458;49.728;9.228;2024-03-23T10:00:30;4.60;;;4.60;;
2896;SDS011;1458;49.728;9.228;2024-03-23T10:02:56;3.70;;;3.70;;
2896;SDS011;1458;49.728;9.228;2024-03-23T10:05:27;3.87;;;3.87;;
2896;SDS011;1458;49.728;9.228;2024-03-23T10:07:54;4.20;;;4.20;;
2896;SDS011;1458;49.728;9.228;2024-03-23T10:10:23;4.60;;;4.60;;
2896;SDS011;1458;49.728;9.228;2024-03-23T10:12:51;4.77;;;4.77;;
2896;SDS011;1458;49.728;9.228;2024-03-23T10:15:19;4.90;;;4.90;;
2896;SDS011;1458;49.728;9.228;2024-03-23T10:17:48;4.97;;;4.97;;
2896;SDS011;1458;49.728;9.228;2024-03-23T10:20:18;4.80;;;4.80;;
2896;SDS011;1458;49.728;9.228;2024-03-23T10:22:47;4.40;;;4.40;;
2896;SDS011;1458;49.728;9.228;2024-03-23T10:25:15;5.20;;;5.20;;
2896;SDS011;1458;49.728;9.228;2024-03-23T10:27:43;5.70;;;5.70;;
2896;SDS011;1458;49.728;9.228;2024-03-23T10:30:11;6.27;;;6.27;;
2896;SDS011;1458;49.728;9.228;2024-03-23T10:32:40;5.30;;;5.30;;
2896;SDS011;1458;49.728;9.228;2024-03-23T10:35:14;5.50;;;5.50;;
2896;SDS011;1458;49.728;9.228;2024-03-23T10:37:44;5.80;;;5.80;;
2896;SDS011;1458;49.728;9.228;2024-03-23T10:40:12;5.70;;;5.70;;
2896;SDS011;1458;49.728;9.228;2024-03-23T10:42:39;6.47;;;6.47;;
2896;SDS011;1458;49.728;9.228;2024-03-23T10:45:08;6.43;;;6.43;;
2896;SDS011;1458;49.728;9.228;2024-03-23T10:47:36;6.80;;;6.70;;
2896;SDS011;1458;49.728;9.228;2024-03-23T10:50:04;6.60;;;6.60;;
2896;SDS011;1458;49.728;9.228;2024-03-23T10:52:31;7.60;;;7.50;;
2896;SDS011;1458;49.728;9.228;2024-03-23T10:54:59;8.83;;;8.63;;
2896;SDS011;1458;49.728;9.228;2024-03-23T10:57:30;8.60;;;8.50;;
2896;SDS011;1458;49.728;9.228;2024-03-23T11:00:06;9.60;;;9.40;;
2896;SDS011;1458;49.728;9.228;2024-03-23T11:02:37;8.50;;;8.40;;
2896;SDS011;1458;49.728;9.228;2024-03-23T11:05:20;8.90;;;8.70;;
2896;SDS011;1458;49.728;9.228;2024-03-23T11:07:55;8.60;;;8.50;;
2896;SDS011;1458;49.728;9.228;2024-03-23T11:10:25;9.30;;;9.10;;
2896;SDS011;1458;49.728;9.228;2024-03-23T11:12:54;9.20;;;9.00;;
2896;SDS011;1458;49.728;9.228;2024-03-23T11:15:23;9.20;;;9.00;;
2896;SDS011;1458;49.728;9.228;2024-03-23T11:20:37;9.13;;;8.93;;
2896;SDS011;1458;49.728;9.228;2024-03-23T11:23:04;9.20;;;9.00;;
2896;SDS011;1458;49.728;9.228;2024-03-23T11:25:33;9.77;;;9.57;;
2896;SDS011;1458;49.728;9.228;2024-03-23T11:28:09;8.97;;;8.77;;
2896;SDS011;1458;49.728;9.228;2024-03-23T11:30:39;9.00;;;8.80;;
2896;SDS011;1458;49.728;9.228;2024-03-23T11:33:06;8.63;;;8.53;;
2896;SDS011;1458;49.728;9.228;2024-03-23T11:35:35;9.00;;;8.80;;
2896;SDS011;1458;49.728;9.228;2024-03-23T11:38:06;9.10;;;8.90;;
2896;SDS011;1458;49.728;9.228;2024-03-23T11:40:35;9.80;;;9.60;;
2896;SDS011;1458;49.728;9.228;2024-03-23T11:43:03;9.30;;;9.10;;
2896;SDS011;1458;49.728;9.228;2024-03-23T11:45:35;10.30;;;10.10;;
2896;SDS011;1458;49.728;9.228;2024-03-23T11:48:08;10.33;;;10.13;;
2896;SDS011;1458;49.728;9.228;2024-03-23T11:50:37;9.90;;;9.70;;
2896;SDS011;1458;49.728;9.228;2024-03-23T11:53:11;9.37;;;9.17;;
2896;SDS011;1458;49.728;9.228;2024-03-23T11:55:41;7.00;;;6.90;;
2896;SDS011;1458;49.728;9.228;2024-03-23T11:58:13;5.33;;;5.33;;
2896;SDS011;1458;49.728;9.228;2024-03-23T12:00:41;3.20;;;3.20;;
2896;SDS011;1458;49.728;9.228;2024-03-23T12:03:09;2.83;;;2.83;;
2896;SDS011;1458;49.728;9.228;2024-03-23T12:05:37;1.60;;;1.60;;
2896;SDS011;1458;49.728;9.228;2024-03-23T12:08:19;1.60;;;1.60;;
2896;SDS011;1458;49.728;9.228;2024-03-23T12:10:50;1.50;;;1.50;;
2896;SDS011;1458;49.728;9.228;2024-03-23T12:13:18;1.40;;;1.40;;
2896;SDS011;1458;49.728;9.228;2024-03-23T12:15:47;1.43;;;1.43;;
2896;SDS011;1458;49.728;9.228;2024-03-23T12:18:17;1.10;;;1.10;;
2896;SDS011;1458;49.728;9.228;2024-03-23T12:20:50;1.27;;;1.27;;
2896;SDS011;1458;49.728;9.228;2024-03-23T12:23:17;1.20;;;1.20;;
2896;SDS011;1458;49.728;9.228;2024-03-23T12:25:46;1.43;;;1.43;;
2896;SDS011;1458;49.728;9.228;2024-03-23T12:28:15;1.60;;;1.60;;
2896;SDS011;1458;49.728;9.228;2024-03-23T12:30:42;1.50;;;1.50;;
2896;SDS011;1458;49.728;9.228;2024-03-23T12:33:09;1.37;;;1.37;;
2896;SDS011;1458;49.728;9.228;2024-03-23T12:35:37;1.80;;;1.80;;
2896;SDS011;1458;49.728;9.228;2024-03-23T12:38:04;1.53;;;1.53;;
2896;SDS011;1458;49.728;9.228;2024-03-23T12:40:32;1.93;;;1.93;;
2896;SDS011;1458;49.728;9.228;2024-03-23T12:42:58;2.30;;;2.30;;
2896;SDS011;1458;49.728;9.228;2024-03-23T12:45:26;2.40;;;2.40;;
2896;SDS011;1458;49.728;9.228;2024-03-23T12:47:52;2.60;;;2.60;;
2896;SDS011;1458;49.728;9.228;2024-03-23T12:50:20;2.70;;;2.70;;
2896;SDS011;1458;49.728;9.228;2024-03-23T12:52:48;3.27;;;3.27;;
2896;SDS011;1458;49.728;9.228;2024-03-23T12:55:16;3.40;;;3.40;;
2896;SDS011;1458;49.728;9.228;2024-03-23T12:57:43;2.90;;;2.90;;
2896;SDS011;1458;49.728;9.228;2024-03-23T13:00:11;3.30;;;3.30;;
2896;SDS011;1458;49.728;9.228;2024-03-23T13:02:40;3.40;;;3.40;;
2896;SDS011;1458;49.728;9.228;2024-03-23T13:05:08;3.30;;;3.30;;
2896;SDS011;1458;49.728;9.228;2024-03-23T13:07:34;3.70;;;3.70;;
2896;SDS011;1458;49.728;9.228;2024-03-23T13:10:05;4.27;;;4.27;;
2896;SDS011;1458;49.728;9.228;2024-03-23T13:12:32;4.10;;;4.10;;
2896;SDS011;1458;49.728;9.228;2024-03-23T13:15:00;4.47;;;4.47;;
2896;SDS011;1458;49.728;9.228;2024-03-23T13:17:27;4.90;;;4.90;;
2896;SDS011;1458;49.728;9.228;2024-03-23T13:19:54;5.07;;;5.07;;
2896;SDS011;1458;49.728;9.228;2024-03-23T13:22:21;5.20;;;5.20;;
2896;SDS011;1458;49.728;9.228;2024-03-23T13:24:48;5.30;;;5.30;;
2896;SDS011;1458;49.728;9.228;2024-03-23T13:27:17;5.83;;;5.83;;
2896;SDS011;1458;49.728;9.228;2024-03-23T13:29:45;6.30;;;6.30;;
2896;SDS011;1458;49.728;9.228;2024-03-23T13:32:12;6.40;;;6.40;;
2896;SDS011;1458;49.728;9.228;2024-03-23T13:34:39;6.00;;;6.00;;
2896;SDS011;1458;49.728;9.228;2024-03-23T13:37:06;6.10;;;6.10;;
2896;SDS011;1458;49.728;9.228;2024-03-23T13:39:35;5.60;;;5.60;;
2896;SDS011;1458;49.728;9.228;2024-03-23T13:42:01;5.40;;;5.40;;
2896;SDS011;1458;49.728;9.228;2024-03-23T13:44:31;5.50;;;5.50;;
2896;SDS011;1458;49.728;9.228;2024-03-23T13:46:58;5.70;;;5.70;;
2896;SDS011;1458;49.728;9.228;2024-03-23T13:49:25;5.43;;;5.43;;
2896;SDS011;1458;49.728;9.228;2024-03-23T13:51:53;5.80;;;5.80;;
2896;SDS011;1458;49.728;9.228;2024-03-23T13:54:21;5.60;;;5.60;;
2896;SDS011;1458;49.728;9.228;2024-03-23T13:56:48;5.70;;;5.70;;
2896;SDS011;1458;49.728;9.228;2024-03-23T13:59:16;5.67;;;5.67;;
2896;SDS011;1458;49.728;9.228;2024-03-23T14:01:44;5.60;;;5.60;;
2896;SDS011;1458;49.728;9.228;2024-03-23T14:04:11;5.50;;;5.50;;
2896;SDS011;1458;49.728;9.228;2024-03-23T14:06:38;6.10;;;6.10;;
2896;SDS011;1458;49.728;9.228;2024-03-23T14:09:07;6.20;;;6.20;;
2896;SDS011;1458;49.728;9.228;2024-03-23T14:11:34;6.87;;;6.77;;
2896;SDS011;1458;49.728;9.228;2024-03-23T14:14:01;6.60;;;6.60;;
2896;SDS011;1458;49.728;9.228;2024-03-23T14:16:28;6.70;;;6.60;;
2896;SDS011;1458;49.728;9.228;2024-03-23T14:18:57;7.03;;;6.93;;
2896;SDS011;1458;49.728;9.228;2024-03-23T14:21:24;7.00;;;6.90;;
2896;SDS011;1458;49.728;9.228;2024-03-23T14:23:51;6.97;;;6.87;;
2896;SDS011;1458;49.728;9.228;2024-03-23T14:26:19;7.10;;;7.00;;
2896;SDS011;1458;49.728;9.228;2024-03-23T14:28:46;6.93;;;6.83;;
2896;SDS011;1458;49.728;9.228;2024-03-23T14:31:12;6.10;;;6.10;;
2896;SDS011;1458;49.728;9.228;2024-03-23T14:33:40;5.90;;;5.90;;
2896;SDS011;1458;49.728;9.228;2024-03-23T14:36:13;6.00;;;6.00;;
2896;SDS011;1458;49.728;9.228;2024-03-23T14:38:41;6.00;;;6.00;;
2896;SDS011;1458;49.728;9.228;2024-03-23T14:41:08;6.33;;;6.33;;
2896;SDS011;1458;49.728;9.228;2024-03-23T14:43:35;6.83;;;6.73;;
2896;SDS011;1458;49.728;9.228;2024-03-23T14:46:05;7.63;;;7.53;;
2896;SDS011;1458;49.728;9.228;2024-03-23T14:48:34;7.20;;;7.10;;
2896;SDS011;1458;49.728;9.228;2024-03-23T14:51:01;7.77;;;7.67;;
2896;SDS011;1458;49.728;9.228;2024-03-23T14:53:32;7.50;;;7.40;;
2896;SDS011;1458;49.728;9.228;2024-03-23T14:55:59;7.40;;;7.30;;
2896;SDS011;1458;49.728;9.228;2024-03-23T14:58:27;7.83;;;7.73;;
2896;SDS011;1458;49.728;9.228;2024-03-23T15:00:59;7.20;;;7.10;;
2896;SDS011;1458;49.728;9.228;2024-03-23T15:03:27;7.40;;;7.30;;
2896;SDS011;1458;49.728;9.228;2024-03-23T15:05:54;7.10;;;7.00;;
2896;SDS011;1458;49.728;9.228;2024-03-23T15:08:23;6.70;;;6.70;;
2896;SDS011;1458;49.728;9.228;2024-03-23T15:10:51;7.10;;;7.00;;
2896;SDS011;1458;49.728;9.228;2024-03-23T15:13:18;6.90;;;6.80;;
2896;SDS011;1458;49.728;9.228;2024-03-23T15:15:48;7.00;;;6.90;;
2896;SDS011;1458;49.728;9.228;2024-03-23T15:18:17;7.00;;;6.90;;
2896;SDS011;1458;49.728;9.228;2024-03-23T15:20:53;6.97;;;6.87;;
2896;SDS011;1458;49.728;9.228;2024-03-23T15:23:21;6.80;;;6.70;;
2896;SDS011;1458;49.728;9.228;2024-03-23T15:25:54;6.70;;;6.60;;
2896;SDS011;1458;49.728;9.228;2024-03-23T15:28:22;6.30;;;6.30;;
2896;SDS011;1458;49.728;9.228;2024-03-23T15:30:52;6.10;;;6.10;;
2896;SDS011;1458;49.728;9.228;2024-03-23T15:33:19;6.60;;;6.50;;
2896;SDS011;1458;49.728;9.228;2024-03-23T15:35:45;5.80;;;5.80;;
2896;SDS011;1458;49.728;9.228;2024-03-23T15:38:13;6.40;;;6.40;;
2896;SDS011;1458;49.728;9.228;2024-03-23T15:40:39;6.40;;;6.40;;
2896;SDS011;1458;49.728;9.228;2024-03-23T15:43:08;6.20;;;6.20;;
2896;SDS011;1458;49.728;9.228;2024-03-23T15:45:35;6.20;;;6.20;;
2896;SDS011;1458;49.728;9.228;2024-03-23T15:48:02;5.20;;;5.20;;
2896;SDS011;1458;49.728;9.228;2024-03-23T15:50:30;4.10;;;4.10;;
2896;SDS011;1458;49.728;9.228;2024-03-23T15:52:58;3.60;;;3.60;;
2896;SDS011;1458;49.728;9.228;2024-03-23T15:55:24;3.30;;;3.30;;
2896;SDS011;1458;49.728;9.228;2024-03-23T15:57:52;2.80;;;2.80;;
2896;SDS011;1458;49.728;9.228;2024-03-23T16:00:20;2.57;;;2.57;;
2896;SDS011;1458;49.728;9.228;2024-03-23T16:02:47;2.40;;;2.40;;
2896;SDS011;1458;49.728;9.228;2024-03-23T16:05:14;2.20;;;2.20;;
2896;SDS011;1458;49.728;9.228;2024-03-23T16:07:41;1.90;;;1.90;;
2896;SDS011;1458;49.728;9.228;2024-03-23T16:10:08;1.70;;;1.70;;
2896;SDS011;1458;49.728;9.228;2024-03-23T16:12:37;1.30;;;1.30;;
2896;SDS011;1458;49.728;9.228;2024-03-23T16:15:05;1.00;;;1.00;;